createdAt,value
2022-07-31T00:00:17.786Z,81.67
2022-07-31T00:02:21.696Z,81.38
2022-07-31T00:03:21.727Z,81.87
2022-07-31T00:05:25.598Z,82.35
2022-07-31T00:06:25.536Z,82.06
2022-07-31T00:08:18.386Z,82.15
2022-07-31T00:09:49.121Z,82.25
2022-07-31T00:11:22.273Z,82.15
2022-07-31T00:12:22.219Z,82.35
2022-07-31T00:14:26.128Z,82.40
2022-07-31T00:15:26.096Z,82.89
2022-07-31T00:17:30.020Z,83.08
2022-07-31T00:18:29.973Z,83.08
2022-07-31T00:20:33.897Z,83.27
2022-07-31T00:21:33.853Z,83.18
2022-07-31T00:23:37.774Z,82.98
2022-07-31T00:24:37.722Z,82.79
2022-07-31T00:26:41.630Z,82.98
2022-07-31T00:27:41.599Z,82.50
2022-07-31T00:29:45.539Z,83.47
2022-07-31T00:30:45.491Z,83.27
2022-07-31T00:32:51.851Z,83.08
2022-07-31T00:33:49.357Z,83.18
2022-07-31T00:35:53.268Z,83.56
2022-07-31T00:36:53.224Z,83.47
2022-07-31T00:38:57.144Z,83.47
2022-07-31T00:39:57.094Z,83.47
2022-07-31T00:42:01.024Z,83.47
2022-07-31T00:43:00.970Z,83.23
2022-07-31T00:45:04.880Z,83.14
2022-07-31T00:46:04.846Z,83.18
2022-07-31T00:47:57.702Z,83.62
2022-07-31T00:48:57.754Z,83.81
2022-07-31T00:51:01.561Z,83.62
2022-07-31T00:52:01.528Z,83.42
2022-07-31T00:54:05.450Z,83.72
2022-07-31T00:55:05.405Z,83.72
2022-07-31T00:57:09.328Z,84.10
2022-07-31T00:58:09.277Z,84.20
2022-07-31T01:00:13.198Z,84.00
2022-07-31T01:01:13.191Z,84.00
2022-07-31T01:03:17.061Z,84.30
2022-07-31T01:04:17.029Z,84.00
2022-07-31T01:06:20.958Z,83.81
2022-07-31T01:07:20.905Z,84.39
2022-07-31T01:09:24.818Z,84.39
2022-07-31T01:10:24.783Z,84.39
2022-07-31T01:12:28.795Z,84.58
2022-07-31T01:13:28.755Z,84.30
2022-07-31T01:15:32.680Z,84.58
2022-07-31T01:16:32.630Z,84.54
2022-07-31T01:18:36.534Z,84.30
2022-07-31T01:19:42.213Z,84.44
2022-07-31T01:21:40.425Z,84.25
2022-07-31T01:22:40.377Z,84.44
2022-07-31T01:24:44.285Z,84.54
2022-07-31T01:25:44.250Z,84.93
2022-07-31T01:27:49.497Z,85.02
2022-07-31T01:28:37.059Z,84.64
2022-07-31T01:30:40.962Z,84.74
2022-07-31T01:31:40.930Z,84.74
2022-07-31T01:33:44.847Z,84.83
2022-07-31T01:34:44.817Z,84.64
2022-07-31T01:36:48.707Z,85.22
2022-07-31T01:37:48.678Z,84.93
2022-07-31T01:39:52.595Z,84.83
2022-07-31T01:40:52.551Z,84.83
2022-07-31T01:42:56.465Z,85.12
2022-07-31T01:43:56.425Z,85.02
2022-07-31T01:46:00.352Z,84.93
2022-07-31T01:47:00.518Z,85.02
2022-07-31T01:49:04.260Z,84.83
2022-07-31T01:50:04.170Z,85.12
2022-07-31T01:52:08.170Z,85.12
2022-07-31T01:53:08.058Z,84.83
2022-07-31T01:55:11.962Z,84.83
2022-07-31T01:56:11.922Z,85.02
2022-07-31T01:58:04.756Z,84.64
2022-07-31T01:59:04.720Z,84.64
2022-07-31T02:01:08.715Z,85.41
2022-07-31T02:02:09.827Z,85.50
2022-07-31T02:04:12.499Z,85.70
2022-07-31T02:05:12.465Z,85.99
2022-07-31T02:07:16.389Z,85.89
2022-07-31T02:08:16.345Z,85.80
2022-07-31T02:10:20.251Z,85.80
2022-07-31T02:11:20.223Z,85.70
2022-07-31T02:13:24.136Z,85.75
2022-07-31T02:14:24.093Z,85.75
2022-07-31T02:16:28.006Z,85.89
2022-07-31T02:17:27.962Z,85.70
2022-07-31T02:19:31.867Z,85.60
2022-07-31T02:20:31.835Z,85.60
2022-07-31T02:22:35.756Z,85.85
2022-07-31T02:23:35.710Z,86.24
2022-07-31T02:25:39.617Z,86.48
2022-07-31T02:26:39.584Z,86.72
2022-07-31T02:28:43.500Z,87.06
2022-07-31T02:29:43.453Z,87.35
2022-07-31T02:31:47.367Z,87.45
2022-07-31T02:32:47.344Z,87.26
2022-07-31T02:34:51.252Z,87.54
2022-07-31T02:35:51.213Z,87.97
2022-07-31T02:37:44.121Z,87.16
2022-07-31T02:38:44.092Z,87.20
2022-07-31T02:40:48.005Z,87.10
2022-07-31T02:41:47.957Z,87.01
2022-07-31T02:43:51.872Z,87.30
2022-07-31T02:44:51.836Z,87.20
2022-07-31T02:46:55.752Z,87.40
2022-07-31T02:47:55.709Z,87.10
2022-07-31T02:49:59.625Z,87.10
2022-07-31T02:50:59.582Z,87.01
2022-07-31T02:53:03.487Z,87.20
2022-07-31T02:54:03.455Z,87.68
2022-07-31T02:56:07.372Z,87.20
2022-07-31T02:57:07.328Z,87.20
2022-07-31T02:59:11.227Z,87.40
2022-07-31T03:00:11.199Z,87.10
2022-07-31T03:02:15.108Z,86.62
2022-07-31T03:03:15.067Z,87.10
2022-07-31T03:05:18.970Z,87.10
2022-07-31T03:06:18.936Z,87.10
2022-07-31T03:08:11.795Z,87.20
2022-07-31T03:09:11.740Z,87.20
2022-07-31T03:11:15.652Z,87.40
2022-07-31T03:12:15.623Z,87.01
2022-07-31T03:14:19.545Z,87.20
2022-07-31T03:15:19.493Z,87.20
2022-07-31T03:17:23.400Z,87.10
2022-07-31T03:18:23.366Z,87.20
2022-07-31T03:20:27.283Z,87.30
2022-07-31T03:21:27.239Z,87.40
2022-07-31T03:23:31.155Z,87.30
2022-07-31T03:24:31.108Z,87.20
2022-07-31T03:26:35.021Z,86.91
2022-07-31T03:27:34.982Z,87.40
2022-07-31T03:29:43.524Z,87.78
2022-07-31T03:30:38.854Z,87.97
2022-07-31T03:32:42.769Z,87.20
2022-07-31T03:33:42.733Z,87.30
2022-07-31T03:35:46.634Z,87.78
2022-07-31T03:36:46.600Z,87.68
2022-07-31T03:38:50.900Z,87.49
2022-07-31T03:39:50.472Z,87.78
2022-07-31T03:41:54.389Z,87.49
2022-07-31T03:42:54.347Z,87.49
2022-07-31T03:44:58.263Z,87.49
2022-07-31T03:45:58.220Z,87.78
2022-07-31T03:47:51.074Z,87.68
2022-07-31T03:48:51.057Z,87.78
2022-07-31T03:50:54.960Z,88.07
2022-07-31T03:51:54.917Z,87.97
2022-07-31T03:53:58.839Z,87.97
2022-07-31T03:54:58.791Z,88.55
2022-07-31T03:57:02.695Z,87.97
2022-07-31T03:58:02.665Z,88.55
2022-07-31T04:00:07.911Z,87.78
2022-07-31T04:01:10.599Z,87.93
2022-07-31T04:03:10.945Z,88.12
2022-07-31T04:04:10.913Z,88.22
2022-07-31T04:05:10.884Z,88.65
2022-07-31T04:06:10.855Z,89.18
2022-07-31T04:07:10.847Z,89.67
2022-07-31T04:08:10.797Z,89.47
2022-07-31T04:09:15.552Z,89.57
2022-07-31T04:10:10.738Z,89.37
2022-07-31T04:11:10.710Z,88.89
2022-07-31T04:12:10.685Z,89.18
2022-07-31T04:13:10.654Z,88.70
2022-07-31T04:14:10.626Z,88.60
2022-07-31T04:15:10.595Z,88.70
2022-07-31T04:16:10.564Z,89.09
2022-07-31T04:17:10.546Z,88.93
2022-07-31T04:18:10.507Z,88.65
2022-07-31T04:19:10.479Z,88.41
2022-07-31T04:20:10.449Z,88.70
2022-07-31T04:21:10.419Z,88.55
2022-07-31T04:22:10.390Z,88.36
2022-07-31T04:23:10.360Z,88.36
2022-07-31T04:24:10.333Z,88.51
2022-07-31T04:25:10.305Z,88.41
2022-07-31T04:26:10.275Z,88.55
2022-07-31T04:27:12.917Z,88.02
2022-07-31T04:28:10.215Z,88.26
2022-07-31T04:29:10.184Z,88.31
2022-07-31T04:30:10.156Z,88.60
2022-07-31T04:31:10.188Z,88.51
2022-07-31T04:32:10.097Z,88.31
2022-07-31T04:33:10.073Z,88.51
2022-07-31T04:34:10.043Z,88.31
2022-07-31T04:35:10.019Z,88.36
2022-07-31T04:36:15.202Z,88.12
2022-07-31T04:37:09.955Z,87.68
2022-07-31T04:38:10.010Z,87.83
2022-07-31T04:39:09.899Z,87.93
2022-07-31T04:40:09.868Z,87.74
2022-07-31T04:41:09.854Z,87.83
2022-07-31T04:42:11.641Z,87.93
2022-07-31T04:43:09.814Z,87.74
2022-07-31T04:44:09.753Z,87.97
2022-07-31T04:45:09.721Z,87.88
2022-07-31T04:46:17.545Z,87.88
2022-07-31T04:47:09.669Z,87.83
2022-07-31T04:48:09.639Z,87.74
2022-07-31T04:49:09.669Z,87.45
2022-07-31T04:50:09.581Z,87.74
2022-07-31T04:51:09.553Z,87.74
2022-07-31T04:52:09.522Z,87.64
2022-07-31T04:53:09.595Z,88.51
2022-07-31T04:54:09.463Z,88.12
2022-07-31T04:55:09.433Z,87.93
2022-07-31T04:56:09.405Z,88.22
2022-07-31T04:57:09.375Z,88.22
2022-07-31T04:58:09.345Z,88.12
2022-07-31T04:59:09.317Z,88.31
2022-07-31T05:00:09.342Z,88.51
2022-07-31T05:01:09.293Z,88.70
2022-07-31T05:02:09.305Z,88.41
2022-07-31T05:03:09.206Z,88.70
2022-07-31T05:04:09.172Z,88.60
2022-07-31T05:05:09.140Z,88.70
2022-07-31T05:06:09.112Z,88.89
2022-07-31T05:07:09.107Z,88.89
2022-07-31T05:08:09.054Z,88.79
2022-07-31T05:09:11.563Z,88.89
2022-07-31T05:10:08.999Z,88.60
2022-07-31T05:11:08.967Z,88.51
2022-07-31T05:12:08.936Z,88.89
2022-07-31T05:13:08.910Z,89.09
2022-07-31T05:14:08.891Z,89.37
2022-07-31T05:15:08.847Z,89.28
2022-07-31T05:16:08.824Z,89.37
2022-07-31T05:17:08.797Z,89.28
2022-07-31T05:18:08.763Z,89.67
2022-07-31T05:19:13.601Z,89.67
2022-07-31T05:20:08.773Z,89.47
2022-07-31T05:21:08.690Z,89.57
2022-07-31T05:22:09.090Z,89.37
2022-07-31T05:23:08.619Z,90.00
2022-07-31T05:24:08.588Z,89.71
2022-07-31T05:25:08.560Z,89.67
2022-07-31T05:26:08.544Z,89.57
2022-07-31T05:27:08.506Z,89.28
2022-07-31T05:28:09.582Z,89.37
2022-07-31T05:29:08.441Z,89.51
2022-07-31T05:30:08.440Z,89.90
2022-07-31T05:31:08.386Z,89.32
2022-07-31T05:32:08.356Z,89.71
2022-07-31T05:33:08.326Z,89.61
2022-07-31T05:34:08.295Z,89.23
2022-07-31T05:35:08.270Z,89.32
2022-07-31T05:36:08.240Z,89.51
2022-07-31T05:37:08.211Z,88.65
2022-07-31T05:38:11.802Z,88.93
2022-07-31T05:39:08.152Z,88.93
2022-07-31T05:40:08.120Z,89.32
2022-07-31T05:41:08.099Z,88.93
2022-07-31T05:42:08.086Z,88.84
2022-07-31T05:43:08.035Z,88.45
2022-07-31T05:44:08.020Z,88.93
2022-07-31T05:45:07.978Z,88.55
2022-07-31T05:46:07.953Z,88.55
2022-07-31T05:47:07.926Z,88.75
2022-07-31T05:48:07.910Z,87.78
2022-07-31T05:49:07.926Z,87.68
2022-07-31T05:50:07.836Z,87.92
2022-07-31T05:51:07.806Z,88.55
2022-07-31T05:52:07.780Z,88.07
2022-07-31T05:53:07.754Z,88.07
2022-07-31T05:54:07.721Z,88.55
2022-07-31T05:55:07.694Z,88.11
2022-07-31T05:56:07.661Z,87.92
2022-07-31T05:57:07.632Z,87.82
2022-07-31T05:58:07.604Z,87.97
2022-07-31T05:59:07.575Z,87.97
2022-07-31T06:00:07.547Z,88.26
2022-07-31T06:01:07.561Z,88.45
2022-07-31T06:02:07.828Z,88.26
2022-07-31T06:03:07.460Z,87.78
2022-07-31T06:04:07.426Z,88.36
2022-07-31T06:05:07.401Z,88.93
2022-07-31T06:06:07.373Z,88.55
2022-07-31T06:07:07.345Z,88.84
2022-07-31T06:08:07.314Z,88.55
2022-07-31T06:09:07.288Z,88.26
2022-07-31T06:10:07.260Z,87.97
2022-07-31T06:11:07.228Z,88.07
2022-07-31T06:12:07.211Z,88.65
2022-07-31T06:13:07.170Z,88.75
2022-07-31T06:14:07.140Z,88.75
2022-07-31T06:15:07.138Z,88.65
2022-07-31T06:16:07.087Z,88.07
2022-07-31T06:17:07.064Z,87.97
2022-07-31T06:18:07.027Z,88.26
2022-07-31T06:19:07.050Z,88.36
2022-07-31T06:20:06.968Z,87.68
2022-07-31T06:21:06.934Z,87.68
2022-07-31T06:22:07.258Z,88.07
2022-07-31T06:23:14.667Z,88.55
2022-07-31T06:24:06.912Z,88.70
2022-07-31T06:25:06.821Z,88.45
2022-07-31T06:26:06.793Z,88.31
2022-07-31T06:27:06.762Z,88.41
2022-07-31T06:28:10.364Z,88.55
2022-07-31T06:29:06.707Z,88.55
2022-07-31T06:30:06.675Z,88.65
2022-07-31T06:31:06.650Z,88.55
2022-07-31T06:32:06.837Z,87.88
2022-07-31T06:33:08.063Z,87.97
2022-07-31T06:34:06.558Z,87.88
2022-07-31T06:35:06.533Z,87.68
2022-07-31T06:36:06.509Z,87.49
2022-07-31T06:37:06.503Z,87.68
2022-07-31T06:38:06.445Z,87.49
2022-07-31T06:39:06.420Z,87.78
2022-07-31T06:40:06.389Z,87.78
2022-07-31T06:41:06.363Z,87.40
2022-07-31T06:42:06.677Z,87.10
2022-07-31T06:43:06.926Z,87.49
2022-07-31T06:44:06.269Z,87.49
2022-07-31T06:45:06.240Z,87.49
2022-07-31T06:46:06.215Z,87.30
2022-07-31T06:47:06.180Z,87.88
2022-07-31T06:48:06.155Z,87.68
2022-07-31T06:49:08.967Z,87.78
2022-07-31T06:50:06.120Z,87.30
2022-07-31T06:51:29.711Z,87.40
2022-07-31T06:52:06.240Z,86.62
2022-07-31T06:53:06.006Z,86.66
2022-07-31T06:54:05.980Z,86.86
2022-07-31T06:55:05.951Z,86.72
2022-07-31T06:56:05.924Z,87.01
2022-07-31T06:57:05.896Z,87.40
2022-07-31T06:58:05.864Z,87.97
2022-07-31T06:59:05.840Z,88.26
2022-07-31T07:00:19.660Z,88.65
2022-07-31T07:01:05.922Z,88.26
2022-07-31T07:02:06.160Z,87.97
2022-07-31T07:03:05.720Z,88.07
2022-07-31T07:04:05.693Z,88.55
2022-07-31T07:05:06.938Z,88.36
2022-07-31T07:06:05.632Z,88.93
2022-07-31T07:07:05.616Z,88.65
2022-07-31T07:08:05.576Z,88.26
2022-07-31T07:09:05.551Z,88.45
2022-07-31T07:10:05.544Z,88.36
2022-07-31T07:11:06.814Z,87.88
2022-07-31T07:12:05.703Z,87.68
2022-07-31T07:13:05.428Z,87.82
2022-07-31T07:14:05.400Z,88.02
2022-07-31T07:15:05.369Z,87.68
2022-07-31T07:16:05.352Z,87.88
2022-07-31T07:17:05.315Z,87.59
2022-07-31T07:18:05.286Z,88.55
2022-07-31T07:19:05.410Z,87.97
2022-07-31T07:20:05.230Z,88.45
2022-07-31T07:21:05.197Z,88.55
2022-07-31T07:22:05.552Z,88.84
2022-07-31T07:23:05.180Z,88.17
2022-07-31T07:24:05.109Z,88.75
2022-07-31T07:25:05.087Z,89.71
2022-07-31T07:26:05.053Z,89.32
2022-07-31T07:27:05.025Z,89.71
2022-07-31T07:28:04.996Z,89.51
2022-07-31T07:29:04.967Z,89.81
2022-07-31T07:30:04.939Z,89.81
2022-07-31T07:31:04.915Z,89.90
2022-07-31T07:32:05.204Z,90.15
2022-07-31T07:33:04.849Z,90.15
2022-07-31T07:34:04.820Z,90.34
2022-07-31T07:35:04.819Z,90.58
2022-07-31T07:36:04.763Z,90.72
2022-07-31T07:37:04.735Z,90.77
2022-07-31T07:38:04.714Z,90.77
2022-07-31T07:39:04.679Z,90.48
2022-07-31T07:40:04.648Z,91.06
2022-07-31T07:41:04.623Z,90.77
2022-07-31T07:42:04.913Z,91.44
2022-07-31T07:43:04.565Z,91.16
2022-07-31T07:44:04.531Z,90.96
2022-07-31T07:45:08.271Z,91.25
2022-07-31T07:46:04.473Z,90.81
2022-07-31T07:47:04.449Z,90.53
2022-07-31T07:48:07.202Z,90.62
2022-07-31T07:49:04.472Z,90.53
2022-07-31T07:50:04.354Z,90.72
2022-07-31T07:51:04.340Z,90.53
2022-07-31T07:52:04.298Z,90.91
2022-07-31T07:53:04.269Z,90.67
2022-07-31T07:54:04.241Z,91.25
2022-07-31T07:55:04.212Z,91.35
2022-07-31T07:56:04.183Z,91.44
2022-07-31T07:57:04.157Z,91.49
2022-07-31T07:58:05.900Z,91.20
2022-07-31T07:59:04.117Z,90.91
2022-07-31T08:00:04.072Z,91.20
2022-07-31T08:01:04.097Z,91.30
2022-07-31T08:02:04.219Z,91.30
2022-07-31T08:03:50.806Z,91.20
2022-07-31T08:04:03.953Z,91.39
2022-07-31T08:05:03.921Z,91.11
2022-07-31T08:06:03.895Z,90.53
2022-07-31T08:07:03.872Z,90.81
2022-07-31T08:08:03.837Z,90.57
2022-07-31T08:09:03.810Z,90.23
2022-07-31T08:10:03.801Z,90.33
2022-07-31T08:11:03.749Z,90.33
2022-07-31T08:12:04.077Z,90.95
2022-07-31T08:13:03.694Z,91.05
2022-07-31T08:14:03.666Z,90.19
2022-07-31T08:15:04.135Z,89.79
2022-07-31T08:16:03.605Z,89.61
2022-07-31T08:17:03.580Z,90.19
2022-07-31T08:18:03.553Z,90.28
2022-07-31T08:19:04.077Z,90.09
2022-07-31T08:20:03.492Z,90.09
2022-07-31T08:21:03.462Z,89.79
2022-07-31T08:22:03.668Z,89.89
2022-07-31T08:23:03.408Z,90.09
2022-07-31T08:24:03.380Z,89.84
2022-07-31T08:25:05.346Z,88.83
2022-07-31T08:26:03.319Z,89.61
2022-07-31T08:27:03.289Z,89.84
2022-07-31T08:28:03.261Z,89.65
2022-07-31T08:29:07.674Z,89.75
2022-07-31T08:30:03.215Z,89.75
2022-07-31T08:31:03.179Z,89.45
2022-07-31T08:32:03.378Z,88.87
2022-07-31T08:33:03.120Z,89.17
2022-07-31T08:34:03.094Z,89.07
2022-07-31T08:35:03.065Z,88.68
2022-07-31T08:36:03.039Z,88.24
2022-07-31T08:37:54.353Z,88.43
2022-07-31T08:38:04.757Z,88.43
2022-07-31T08:39:02.956Z,88.05
2022-07-31T08:40:02.924Z,88.15
2022-07-31T08:41:02.891Z,88.05
2022-07-31T08:42:03.111Z,88.73
2022-07-31T08:43:07.302Z,87.85
2022-07-31T08:44:04.461Z,87.37
2022-07-31T08:45:02.780Z,87.57
2022-07-31T08:46:02.975Z,87.37
2022-07-31T08:47:02.725Z,87.08
2022-07-31T08:48:02.695Z,87.27
2022-07-31T08:49:02.722Z,87.71
2022-07-31T08:50:02.640Z,86.83
2022-07-31T08:51:02.625Z,86.55
2022-07-31T08:52:02.880Z,86.55
2022-07-31T08:53:02.555Z,86.16
2022-07-31T08:54:02.526Z,86.20
2022-07-31T08:55:02.500Z,86.10
2022-07-31T08:56:02.471Z,85.04
2022-07-31T08:57:02.774Z,85.62
2022-07-31T08:58:02.415Z,85.97
2022-07-31T08:59:02.389Z,86.01
2022-07-31T09:00:02.379Z,85.62
2022-07-31T09:01:02.398Z,85.42
2022-07-31T09:02:02.640Z,85.52
2022-07-31T09:03:02.279Z,85.33
2022-07-31T09:04:02.247Z,84.56
2022-07-31T09:05:02.246Z,84.84
2022-07-31T09:06:02.192Z,84.84
2022-07-31T09:07:02.393Z,84.99
2022-07-31T09:08:02.137Z,84.66
2022-07-31T09:09:02.111Z,84.89
2022-07-31T09:10:02.088Z,83.88
2022-07-31T09:11:02.056Z,84.11
2022-07-31T09:12:02.028Z,84.60
2022-07-31T09:13:01.998Z,84.01
2022-07-31T09:14:03.366Z,83.88
2022-07-31T09:15:01.950Z,84.08
2022-07-31T09:16:01.914Z,83.40
2022-07-31T09:17:02.219Z,83.30
2022-07-31T09:18:01.868Z,83.20
2022-07-31T09:19:01.833Z,83.69
2022-07-31T09:20:01.812Z,83.88
2022-07-31T09:21:02.205Z,83.63
2022-07-31T09:22:01.749Z,83.63
2022-07-31T09:23:01.726Z,83.59
2022-07-31T09:24:01.696Z,83.44
2022-07-31T09:25:01.666Z,83.73
2022-07-31T09:26:01.646Z,83.63
2022-07-31T09:27:01.865Z,83.44
2022-07-31T09:28:01.598Z,83.25
2022-07-31T09:29:01.559Z,83.25
2022-07-31T09:30:01.547Z,82.86
2022-07-31T09:31:01.503Z,82.47
2022-07-31T09:32:01.481Z,82.76
2022-07-31T09:33:01.447Z,82.70
2022-07-31T09:34:01.425Z,82.66
2022-07-31T09:35:01.393Z,82.41
2022-07-31T09:36:01.366Z,82.51
2022-07-31T09:37:01.648Z,82.41
2022-07-31T09:38:01.313Z,82.60
2022-07-31T09:39:05.220Z,82.57
2022-07-31T09:40:01.264Z,82.66
2022-07-31T09:41:01.235Z,82.47
2022-07-31T09:42:16.615Z,82.66
2022-07-31T09:43:03.154Z,83.44
2022-07-31T09:44:01.152Z,82.22
2022-07-31T09:45:01.121Z,82.90
2022-07-31T09:46:01.097Z,82.80
2022-07-31T09:47:01.230Z,82.37
2022-07-31T09:48:01.045Z,82.37
2022-07-31T09:49:01.075Z,82.66
2022-07-31T09:50:00.992Z,82.47
2022-07-31T09:51:00.956Z,82.76
2022-07-31T09:52:00.927Z,82.70
2022-07-31T09:53:00.907Z,83.28
2022-07-31T09:54:00.881Z,82.41
2022-07-31T09:55:00.849Z,82.41
2022-07-31T09:56:00.816Z,82.51
2022-07-31T09:57:00.789Z,82.22
2022-07-31T09:58:00.763Z,83.38
2022-07-31T09:59:00.738Z,83.28
2022-07-31T10:00:00.725Z,83.00
2022-07-31T10:01:00.767Z,82.22
2022-07-31T10:02:00.659Z,82.17
2022-07-31T10:03:00.632Z,82.12
2022-07-31T10:04:00.614Z,81.48
2022-07-31T10:05:00.576Z,81.00
2022-07-31T10:06:00.549Z,81.10
2022-07-31T10:07:00.521Z,80.90
2022-07-31T10:08:00.508Z,81.10
2022-07-31T10:09:00.465Z,81.00
2022-07-31T10:10:00.440Z,81.33
2022-07-31T10:11:00.413Z,80.75
2022-07-31T10:12:00.387Z,80.26
2022-07-31T10:13:00.366Z,79.68
2022-07-31T10:14:00.340Z,80.01
2022-07-31T10:15:00.311Z,78.91
2022-07-31T10:16:00.276Z,79.58
2022-07-31T10:17:00.260Z,79.49
2022-07-31T10:18:00.224Z,78.33
2022-07-31T10:19:00.205Z,78.17
2022-07-31T10:20:00.170Z,77.88
2022-07-31T10:21:00.146Z,78.07
2022-07-31T10:22:00.121Z,77.88
2022-07-31T10:23:00.103Z,77.88
2022-07-31T10:24:00.065Z,77.39
2022-07-31T10:25:00.036Z,77.62
2022-07-31T10:26:00.011Z,77.69
2022-07-31T10:27:01.573Z,77.29
2022-07-31T10:27:59.966Z,77.39
2022-07-31T10:28:59.933Z,77.75
2022-07-31T10:29:59.907Z,78.17
2022-07-31T10:30:59.881Z,78.07
2022-07-31T10:31:59.855Z,77.78
2022-07-31T10:32:59.830Z,77.20
2022-07-31T10:33:59.796Z,77.69
2022-07-31T10:34:59.773Z,77.98
2022-07-31T10:35:59.747Z,77.78
2022-07-31T10:36:59.733Z,77.82
2022-07-31T10:37:59.734Z,77.72
2022-07-31T10:38:59.670Z,77.04
2022-07-31T10:39:59.639Z,76.65
2022-07-31T10:40:59.621Z,76.27
2022-07-31T10:41:59.593Z,76.56
2022-07-31T10:42:59.572Z,75.98
2022-07-31T10:43:59.539Z,76.56
2022-07-31T10:44:59.506Z,76.27
2022-07-31T10:45:59.483Z,76.17
2022-07-31T10:46:59.458Z,76.85
2022-07-31T10:47:59.435Z,76.89
2022-07-31T10:48:59.430Z,76.40
2022-07-31T10:49:59.382Z,76.60
2022-07-31T10:50:59.352Z,76.69
2022-07-31T10:51:59.323Z,76.60
2022-07-31T10:53:00.757Z,75.57
2022-07-31T10:53:59.279Z,75.76
2022-07-31T10:54:59.252Z,75.95
2022-07-31T10:55:59.220Z,75.24
2022-07-31T10:56:59.227Z,76.40
2022-07-31T10:57:59.171Z,76.79
2022-07-31T10:58:59.183Z,75.82
2022-07-31T10:59:59.120Z,75.76
2022-07-31T11:00:59.092Z,76.15
2022-07-31T11:01:59.192Z,75.67
2022-07-31T11:02:59.043Z,75.31
2022-07-31T11:03:59.013Z,74.79
2022-07-31T11:04:59.218Z,73.37
2022-07-31T11:06:00.904Z,74.30
2022-07-31T11:06:58.952Z,73.56
2022-07-31T11:07:58.917Z,73.66
2022-07-31T11:08:58.886Z,73.66
2022-07-31T11:09:58.861Z,73.75
2022-07-31T11:10:58.843Z,74.54
2022-07-31T11:11:58.812Z,73.95
2022-07-31T11:12:58.785Z,74.24
2022-07-31T11:13:58.763Z,73.60
2022-07-31T11:14:58.749Z,73.60
2022-07-31T11:15:58.709Z,73.02
2022-07-31T11:16:58.680Z,72.69
2022-07-31T11:18:22.057Z,73.30
2022-07-31T11:18:58.644Z,72.17
2022-07-31T11:19:58.612Z,71.88
2022-07-31T11:20:58.577Z,72.08
2022-07-31T11:21:58.558Z,71.98
2022-07-31T11:22:58.533Z,71.78
2022-07-31T11:24:03.391Z,72.31
2022-07-31T11:24:58.503Z,71.78
2022-07-31T11:25:58.461Z,71.40
2022-07-31T11:26:58.432Z,72.66
2022-07-31T11:27:58.409Z,72.27
2022-07-31T11:28:58.382Z,71.82
2022-07-31T11:30:04.124Z,72.21
2022-07-31T11:30:58.335Z,71.14
2022-07-31T11:31:58.313Z,71.33
2022-07-31T11:32:58.288Z,70.88
2022-07-31T11:33:58.269Z,70.65
2022-07-31T11:34:58.242Z,70.07
2022-07-31T11:35:58.213Z,70.62
2022-07-31T11:36:58.198Z,70.62
2022-07-31T11:38:05.325Z,71.46
2022-07-31T11:40:02.089Z,71.88
2022-07-31T11:41:02.052Z,71.78
2022-07-31T11:43:35.858Z,71.43
2022-07-31T11:44:05.939Z,71.23
2022-07-31T11:46:09.867Z,70.68
2022-07-31T11:48:09.845Z,70.43
2022-07-31T11:49:02.765Z,68.90
2022-07-31T11:50:02.708Z,68.23
2022-07-31T11:52:06.563Z,69.00
2022-07-31T11:53:06.536Z,69.36
2022-07-31T11:55:10.461Z,69.56
2022-07-31T11:56:10.426Z,69.56
2022-07-31T11:58:14.359Z,69.36
2022-07-31T11:59:44.700Z,69.42
2022-07-31T12:01:18.235Z,70.10
2022-07-31T12:02:18.230Z,70.20
2022-07-31T12:03:18.186Z,70.10
2022-07-31T12:04:18.177Z,69.84
2022-07-31T12:05:18.135Z,69.56
2022-07-31T12:06:18.113Z,69.59
2022-07-31T12:07:18.090Z,69.56
2022-07-31T12:08:18.066Z,69.56
2022-07-31T12:10:02.890Z,69.68
2022-07-31T12:10:18.055Z,69.20
2022-07-31T12:11:17.996Z,68.87
2022-07-31T12:12:17.973Z,69.07
2022-07-31T12:13:17.951Z,68.93
2022-07-31T12:14:17.924Z,69.65
2022-07-31T12:15:17.902Z,69.81
2022-07-31T12:16:17.873Z,70.30
2022-07-31T12:17:17.851Z,70.59
2022-07-31T12:18:17.827Z,70.40
2022-07-31T12:19:17.802Z,70.88
2022-07-31T12:20:34.350Z,71.27
2022-07-31T12:21:17.754Z,71.47
2022-07-31T12:22:17.729Z,71.17
2022-07-31T12:23:40.255Z,71.17
2022-07-31T12:24:17.681Z,71.66
2022-07-31T12:25:17.658Z,71.08
2022-07-31T12:26:17.633Z,71.17
2022-07-31T12:27:17.610Z,70.88
2022-07-31T12:28:17.583Z,70.43
2022-07-31T12:29:17.560Z,70.82
2022-07-31T12:30:17.536Z,70.23
2022-07-31T12:31:17.516Z,70.23
2022-07-31T12:32:17.491Z,70.23
2022-07-31T12:33:17.459Z,70.68
2022-07-31T12:34:17.438Z,70.68
2022-07-31T12:35:17.413Z,70.98
2022-07-31T12:36:17.390Z,71.21
2022-07-31T12:37:17.368Z,70.78
2022-07-31T12:38:37.831Z,71.95
2022-07-31T12:39:17.317Z,71.56
2022-07-31T12:40:17.297Z,71.31
2022-07-31T12:41:17.267Z,71.15
2022-07-31T12:42:17.242Z,70.76
2022-07-31T12:43:17.218Z,70.07
2022-07-31T12:44:21.574Z,70.40
2022-07-31T12:45:18.002Z,69.82
2022-07-31T12:46:17.153Z,69.62
2022-07-31T12:47:17.121Z,69.62
2022-07-31T12:48:17.103Z,69.68
2022-07-31T12:49:17.118Z,69.59
2022-07-31T12:50:17.053Z,69.82
2022-07-31T12:51:17.035Z,69.04
2022-07-31T12:52:17.003Z,69.39
2022-07-31T12:53:16.993Z,69.72
2022-07-31T12:54:16.963Z,69.04
2022-07-31T12:55:17.123Z,68.74
2022-07-31T12:56:16.913Z,69.20
2022-07-31T12:57:16.883Z,69.23
2022-07-31T12:58:16.865Z,69.33
2022-07-31T12:59:16.838Z,69.04
2022-07-31T13:00:16.815Z,68.94
2022-07-31T13:01:16.848Z,69.07
2022-07-31T13:02:16.767Z,68.62
2022-07-31T13:03:16.747Z,69.10
2022-07-31T13:04:18.930Z,68.94
2022-07-31T13:05:16.699Z,68.16
2022-07-31T13:06:16.677Z,68.90
2022-07-31T13:07:16.649Z,69.59
2022-07-31T13:08:16.625Z,68.80
2022-07-31T13:09:16.615Z,68.94
2022-07-31T13:10:21.370Z,69.04
2022-07-31T13:11:16.554Z,69.04
2022-07-31T13:12:16.530Z,69.26
2022-07-31T13:13:16.510Z,68.29
2022-07-31T13:14:16.487Z,68.97
2022-07-31T13:15:16.461Z,68.39
2022-07-31T13:16:16.437Z,69.23
2022-07-31T13:17:16.412Z,68.97
2022-07-31T13:18:16.399Z,69.26
2022-07-31T13:19:16.369Z,68.16
2022-07-31T13:20:16.611Z,67.80
2022-07-31T13:21:16.321Z,67.61
2022-07-31T13:22:16.297Z,68.19
2022-07-31T13:23:16.270Z,68.10
2022-07-31T13:24:16.252Z,67.61
2022-07-31T13:25:16.231Z,67.32
2022-07-31T13:26:16.204Z,68.29
2022-07-31T13:27:16.175Z,68.39
2022-07-31T13:28:16.154Z,68.35
2022-07-31T13:29:16.135Z,69.04
2022-07-31T13:30:16.115Z,68.90
2022-07-31T13:31:16.081Z,68.80
2022-07-31T13:32:16.059Z,69.39
2022-07-31T13:33:16.035Z,69.39
2022-07-31T13:34:16.018Z,69.59
2022-07-31T13:35:19.570Z,69.20
2022-07-31T13:36:15.964Z,68.90
2022-07-31T13:37:15.940Z,68.90
2022-07-31T13:38:15.912Z,69.13
2022-07-31T13:39:15.892Z,68.94
2022-07-31T13:40:15.869Z,69.23
2022-07-31T13:41:15.840Z,68.90
2022-07-31T13:42:15.820Z,69.29
2022-07-31T13:43:15.797Z,69.29
2022-07-31T13:44:15.775Z,69.20
2022-07-31T13:45:15.745Z,69.39
2022-07-31T13:46:15.723Z,69.00
2022-07-31T13:47:15.699Z,69.56
2022-07-31T13:48:15.676Z,69.65
2022-07-31T13:49:15.884Z,69.84
2022-07-31T13:50:15.627Z,69.65
2022-07-31T13:51:15.606Z,69.94
2022-07-31T13:52:15.579Z,70.68
2022-07-31T13:53:15.557Z,70.82
2022-07-31T13:54:15.531Z,70.33
2022-07-31T13:55:15.505Z,70.68
2022-07-31T13:56:15.481Z,70.20
2022-07-31T13:57:15.456Z,70.50
2022-07-31T13:58:15.434Z,70.78
2022-07-31T13:59:15.406Z,70.40
2022-07-31T14:00:15.384Z,71.23
2022-07-31T14:01:15.387Z,71.53
2022-07-31T14:02:15.763Z,71.72
2022-07-31T14:03:17.080Z,71.47
2022-07-31T14:04:21.347Z,71.56
2022-07-31T14:05:15.260Z,71.62
2022-07-31T14:06:15.241Z,72.02
2022-07-31T14:07:15.210Z,71.92
2022-07-31T14:08:32.888Z,71.92
2022-07-31T14:09:15.161Z,72.11
2022-07-31T14:10:20.175Z,72.02
2022-07-31T14:11:15.120Z,72.21
2022-07-31T14:12:15.087Z,72.27
2022-07-31T14:13:15.063Z,72.37
2022-07-31T14:14:15.037Z,72.31
2022-07-31T14:15:15.011Z,72.41
2022-07-31T14:16:14.987Z,72.50
2022-07-31T14:17:14.961Z,72.37
2022-07-31T14:18:14.936Z,72.66
2022-07-31T14:19:14.910Z,72.96
2022-07-31T14:20:14.895Z,73.15
2022-07-31T14:21:16.457Z,72.56
2022-07-31T14:22:14.836Z,72.72
2022-07-31T14:23:14.813Z,73.05
2022-07-31T14:24:14.786Z,73.15